sensor_id;sensor_type;location;lat;lon;timestamp;pressure;altitude;pressure_sealevel;temperature
81657;BMP280;71067;51.482;-0.580;2024-01-25T00:00:40;102865.84;;;7.07
81657;BMP280;71067;51.482;-0.580;2024-01-25T00:03:06;102868.41;;;7.07
81657;BMP280;71067;51.482;-0.580;2024-01-25T00:05:31;102870.00;;;7.09
81657;BMP280;71067;51.482;-0.580;2024-01-25T00:07:57;102857.59;;;7.00
81657;BMP280;71067;51.482;-0.580;2024-01-25T00:10:22;102864.28;;;6.87
81657;BMP280;71067;51.482;-0.580;2024-01-25T00:12:48;102854.38;;;6.79
81657;BMP280;71067;51.482;-0.580;2024-01-25T00:15:13;102870.19;;;6.89
81657;BMP280;71067;51.482;-0.580;2024-01-25T00:17:38;102874.44;;;6.90
81657;BMP280;71067;51.482;-0.580;2024-01-25T00:20:05;102870.13;;;6.91
81657;BMP280;71067;51.482;-0.580;2024-01-25T00:22:30;102868.69;;;6.85
81657;BMP280;71067;51.482;-0.580;2024-01-25T00:24:55;102852.25;;;6.87
81657;BMP280;71067;51.482;-0.580;2024-01-25T00:27:21;102843.56;;;6.90
81657;BMP280;71067;51.482;-0.580;2024-01-25T00:29:46;102849.38;;;6.94
81657;BMP280;71067;51.482;-0.580;2024-01-25T00:32:11;102840.97;;;6.90
81657;BMP280;71067;51.482;-0.580;2024-01-25T00:34:37;102832.31;;;6.91
81657;BMP280;71067;51.482;-0.580;2024-01-25T00:37:02;102816.25;;;6.70
81657;BMP280;71067;51.482;-0.580;2024-01-25T00:39:28;102837.63;;;6.72
81657;BMP280;71067;51.482;-0.580;2024-01-25T00:41:58;102838.41;;;6.73
81657;BMP280;71067;51.482;-0.580;2024-01-25T00:44:27;102835.03;;;6.72
81657;BMP280;71067;51.482;-0.580;2024-01-25T00:46:53;102817.44;;;6.65
81657;BMP280;71067;51.482;-0.580;2024-01-25T00:49:19;102831.53;;;6.73
81657;BMP280;71067;51.482;-0.580;2024-01-25T00:51:46;102833.06;;;6.77
81657;BMP280;71067;51.482;-0.580;2024-01-25T00:54:13;102834.72;;;6.78
81657;BMP280;71067;51.482;-0.580;2024-01-25T00:56:39;102839.78;;;6.80
81657;BMP280;71067;51.482;-0.580;2024-01-25T00:59:05;102833.47;;;6.70
81657;BMP280;71067;51.482;-0.580;2024-01-25T01:01:30;102833.88;;;6.62
81657;BMP280;71067;51.482;-0.580;2024-01-25T01:03:58;102829.53;;;6.63
81657;BMP280;71067;51.482;-0.580;2024-01-25T01:06:24;102820.63;;;6.68
81657;BMP280;71067;51.482;-0.580;2024-01-25T01:08:49;102821.75;;;6.64
81657;BMP280;71067;51.482;-0.580;2024-01-25T01:11:15;102815.59;;;6.67
81657;BMP280;71067;51.482;-0.580;2024-01-25T01:13:40;102798.13;;;6.56
81657;BMP280;71067;51.482;-0.580;2024-01-25T01:16:06;102798.72;;;6.61
81657;BMP280;71067;51.482;-0.580;2024-01-25T01:18:31;102810.28;;;6.70
81657;BMP280;71067;51.482;-0.580;2024-01-25T01:20:56;102791.59;;;6.66
81657;BMP280;71067;51.482;-0.580;2024-01-25T01:23:22;102791.34;;;6.71
81657;BMP280;71067;51.482;-0.580;2024-01-25T01:25:47;102784.03;;;6.63
81657;BMP280;71067;51.482;-0.580;2024-01-25T01:28:13;102773.97;;;6.59
81657;BMP280;71067;51.482;-0.580;2024-01-25T01:30:38;102759.94;;;6.49
81657;BMP280;71067;51.482;-0.580;2024-01-25T01:33:09;102794.34;;;6.63
81657;BMP280;71067;51.482;-0.580;2024-01-25T01:35:35;102776.84;;;6.53
81657;BMP280;71067;51.482;-0.580;2024-01-25T01:38:00;102794.44;;;6.62
81657;BMP280;71067;51.482;-0.580;2024-01-25T01:40:25;102790.25;;;6.59
81657;BMP280;71067;51.482;-0.580;2024-01-25T01:42:51;102788.66;;;6.57
81657;BMP280;71067;51.482;-0.580;2024-01-25T01:45:16;102783.09;;;6.49
81657;BMP280;71067;51.482;-0.580;2024-01-25T01:47:41;102784.28;;;6.42
81657;BMP280;71067;51.482;-0.580;2024-01-25T01:50:08;102775.59;;;6.44
81657;BMP280;71067;51.482;-0.580;2024-01-25T01:52:34;102773.69;;;6.48
81657;BMP280;71067;51.482;-0.580;2024-01-25T01:54:59;102779.69;;;6.48
81657;BMP280;71067;51.482;-0.580;2024-01-25T01:57:25;102773.19;;;6.41
81657;BMP280;71067;51.482;-0.580;2024-01-25T01:59:52;102780.81;;;6.43
81657;BMP280;71067;51.482;-0.580;2024-01-25T02:02:17;102782.56;;;6.42
81657;BMP280;71067;51.482;-0.580;2024-01-25T02:04:43;102782.81;;;6.38
81657;BMP280;71067;51.482;-0.580;2024-01-25T02:07:08;102784.38;;;6.40
81657;BMP280;71067;51.482;-0.580;2024-01-25T02:09:34;102774.41;;;6.34
81657;BMP280;71067;51.482;-0.580;2024-01-25T02:12:03;102776.00;;;6.37
81657;BMP280;71067;51.482;-0.580;2024-01-25T02:14:30;102763.38;;;6.32
81657;BMP280;71067;51.482;-0.580;2024-01-25T02:16:55;102754.75;;;6.33
81657;BMP280;71067;51.482;-0.580;2024-01-25T02:19:21;102728.97;;;6.18
81657;BMP280;71067;51.482;-0.580;2024-01-25T02:21:46;102750.50;;;6.32
81657;BMP280;71067;51.482;-0.580;2024-01-25T02:24:13;102727.16;;;6.20
81657;BMP280;71067;51.482;-0.580;2024-01-25T02:26:38;102750.59;;;6.31
81657;BMP280;71067;51.482;-0.580;2024-01-25T02:29:04;102760.66;;;6.18
81657;BMP280;71067;51.482;-0.580;2024-01-25T02:31:30;102754.00;;;6.14
81657;BMP280;71067;51.482;-0.580;2024-01-25T02:33:55;102756.75;;;5.94
81657;BMP280;71067;51.482;-0.580;2024-01-25T02:36:22;102754.09;;;5.95
81657;BMP280;71067;51.482;-0.580;2024-01-25T02:38:47;102736.41;;;5.89
81657;BMP280;71067;51.482;-0.580;2024-01-25T02:41:13;102735.28;;;5.95
81657;BMP280;71067;51.482;-0.580;2024-01-25T02:43:38;102733.09;;;6.04
81657;BMP280;71067;51.482;-0.580;2024-01-25T02:46:03;102738.84;;;6.09
81657;BMP280;71067;51.482;-0.580;2024-01-25T02:48:31;102735.16;;;6.13
81657;BMP280;71067;51.482;-0.580;2024-01-25T02:50:56;102720.56;;;6.14
81657;BMP280;71067;51.482;-0.580;2024-01-25T02:53:21;102716.19;;;6.16
81657;BMP280;71067;51.482;-0.580;2024-01-25T02:55:47;102723.75;;;6.19
81657;BMP280;71067;51.482;-0.580;2024-01-25T02:58:12;102711.59;;;6.23
81657;BMP280;71067;51.482;-0.580;2024-01-25T03:00:37;102697.44;;;6.14
81657;BMP280;71067;51.482;-0.580;2024-01-25T03:03:03;102715.75;;;6.25
81657;BMP280;71067;51.482;-0.580;2024-01-25T03:05:28;102699.63;;;6.22
81657;BMP280;71067;51.482;-0.580;2024-01-25T03:07:53;102708.88;;;6.26
81657;BMP280;71067;51.482;-0.580;2024-01-25T03:10:19;102718.38;;;6.24
81657;BMP280;71067;51.482;-0.580;2024-01-25T03:12:45;102712.22;;;6.26
81657;BMP280;71067;51.482;-0.580;2024-01-25T03:15:11;102709.59;;;6.28
81657;BMP280;71067;51.482;-0.580;2024-01-25T03:17:36;102681.03;;;6.17
81657;BMP280;71067;51.482;-0.580;2024-01-25T03:20:02;102679.91;;;6.22
81657;BMP280;71067;51.482;-0.580;2024-01-25T03:22:27;102687.19;;;6.30
81657;BMP280;71067;51.482;-0.580;2024-01-25T03:24:53;102694.16;;;6.28
81657;BMP280;71067;51.482;-0.580;2024-01-25T03:27:18;102689.66;;;6.31
81657;BMP280;71067;51.482;-0.580;2024-01-25T03:29:43;102681.91;;;6.33
81657;BMP280;71067;51.482;-0.580;2024-01-25T03:32:09;102654.66;;;6.29
81657;BMP280;71067;51.482;-0.580;2024-01-25T03:34:35;102665.38;;;6.37
81657;BMP280;71067;51.482;-0.580;2024-01-25T03:37:00;102674.59;;;6.41
81657;BMP280;71067;51.482;-0.580;2024-01-25T03:39:25;102681.38;;;6.42
81657;BMP280;71067;51.482;-0.580;2024-01-25T03:41:50;102671.88;;;6.44
81657;BMP280;71067;51.482;-0.580;2024-01-25T03:44:16;102664.63;;;6.35
81657;BMP280;71067;51.482;-0.580;2024-01-25T03:46:41;102666.88;;;6.41
81657;BMP280;71067;51.482;-0.580;2024-01-25T03:49:06;102671.09;;;6.42
81657;BMP280;71067;51.482;-0.580;2024-01-25T03:51:32;102665.81;;;6.45
81657;BMP280;71067;51.482;-0.580;2024-01-25T03:53:57;102660.34;;;6.51
81657;BMP280;71067;51.482;-0.580;2024-01-25T03:56:23;102660.91;;;6.56
81657;BMP280;71067;51.482;-0.580;2024-01-25T03:58:49;102651.38;;;6.58
81657;BMP280;71067;51.482;-0.580;2024-01-25T04:01:14;102622.06;;;6.45
81657;BMP280;71067;51.482;-0.580;2024-01-25T04:03:40;102643.16;;;6.67
81657;BMP280;71067;51.482;-0.580;2024-01-25T04:06:06;102627.16;;;6.62
81657;BMP280;71067;51.482;-0.580;2024-01-25T04:08:31;102642.75;;;6.74
81657;BMP280;71067;51.482;-0.580;2024-01-25T04:10:57;102638.06;;;6.81
81657;BMP280;71067;51.482;-0.580;2024-01-25T04:13:22;102613.00;;;6.69
81657;BMP280;71067;51.482;-0.580;2024-01-25T04:15:47;102639.44;;;6.88
81657;BMP280;71067;51.482;-0.580;2024-01-25T04:18:12;102631.50;;;6.91
81657;BMP280;71067;51.482;-0.580;2024-01-25T04:20:38;102638.03;;;6.97
81657;BMP280;71067;51.482;-0.580;2024-01-25T04:23:03;102626.16;;;6.94
81657;BMP280;71067;51.482;-0.580;2024-01-25T04:25:28;102634.13;;;7.05
81657;BMP280;71067;51.482;-0.580;2024-01-25T04:27:54;102636.53;;;7.08
81657;BMP280;71067;51.482;-0.580;2024-01-25T04:30:19;102625.50;;;7.06
81657;BMP280;71067;51.482;-0.580;2024-01-25T04:32:44;102628.38;;;7.16
81657;BMP280;71067;51.482;-0.580;2024-01-25T04:35:10;102609.13;;;7.07
81657;BMP280;71067;51.482;-0.580;2024-01-25T04:37:35;102627.03;;;7.24
81657;BMP280;71067;51.482;-0.580;2024-01-25T04:40:01;102604.91;;;7.20
81657;BMP280;71067;51.482;-0.580;2024-01-25T04:42:26;102594.56;;;7.22
81657;BMP280;71067;51.482;-0.580;2024-01-25T04:44:53;102605.81;;;7.35
81657;BMP280;71067;51.482;-0.580;2024-01-25T04:47:18;102608.09;;;7.39
81657;BMP280;71067;51.482;-0.580;2024-01-25T04:49:43;102605.34;;;7.42
81657;BMP280;71067;51.482;-0.580;2024-01-25T04:52:09;102572.31;;;7.35
81657;BMP280;71067;51.482;-0.580;2024-01-25T04:54:34;102591.19;;;7.49
81657;BMP280;71067;51.482;-0.580;2024-01-25T04:56:59;102585.09;;;7.50
81657;BMP280;71067;51.482;-0.580;2024-01-25T04:59:24;102581.50;;;7.53
81657;BMP280;71067;51.482;-0.580;2024-01-25T05:01:50;102580.69;;;7.52
81657;BMP280;71067;51.482;-0.580;2024-01-25T05:04:16;102583.75;;;7.59
81657;BMP280;71067;51.482;-0.580;2024-01-25T05:06:42;102584.28;;;7.64
81657;BMP280;71067;51.482;-0.580;2024-01-25T05:09:07;102572.69;;;7.57
81657;BMP280;71067;51.482;-0.580;2024-01-25T05:11:38;102591.66;;;7.70
81657;BMP280;71067;51.482;-0.580;2024-01-25T05:14:03;102588.03;;;7.72
81657;BMP280;71067;51.482;-0.580;2024-01-25T05:16:28;102575.38;;;7.70
81657;BMP280;71067;51.482;-0.580;2024-01-25T05:18:54;102581.06;;;7.75
81657;BMP280;71067;51.482;-0.580;2024-01-25T05:21:19;102583.38;;;7.79
81657;BMP280;71067;51.482;-0.580;2024-01-25T05:23:44;102577.19;;;7.82
81657;BMP280;71067;51.482;-0.580;2024-01-25T05:26:10;102576.06;;;7.86
81657;BMP280;71067;51.482;-0.580;2024-01-25T05:28:36;102580.13;;;7.90
81657;BMP280;71067;51.482;-0.580;2024-01-25T05:31:01;102577.56;;;7.90
81657;BMP280;71067;51.482;-0.580;2024-01-25T05:33:26;102551.03;;;7.88
81657;BMP280;71067;51.482;-0.580;2024-01-25T05:35:51;102565.00;;;7.98
81657;BMP280;71067;51.482;-0.580;2024-01-25T05:38:17;102562.25;;;8.01
81657;BMP280;71067;51.482;-0.580;2024-01-25T05:40:42;102550.94;;;8.03
81657;BMP280;71067;51.482;-0.580;2024-01-25T05:43:07;102555.84;;;8.06
81657;BMP280;71067;51.482;-0.580;2024-01-25T05:45:33;102557.44;;;8.09
81657;BMP280;71067;51.482;-0.580;2024-01-25T05:47:58;102560.75;;;8.11
81657;BMP280;71067;51.482;-0.580;2024-01-25T05:50:24;102560.59;;;8.14
81657;BMP280;71067;51.482;-0.580;2024-01-25T05:52:49;102561.28;;;8.16
81657;BMP280;71067;51.482;-0.580;2024-01-25T05:55:15;102556.84;;;8.18
81657;BMP280;71067;51.482;-0.580;2024-01-25T05:57:42;102549.84;;;8.20
81657;BMP280;71067;51.482;-0.580;2024-01-25T06:00:08;102545.44;;;8.22
81657;BMP280;71067;51.482;-0.580;2024-01-25T06:02:36;102548.75;;;8.24
81657;BMP280;71067;51.482;-0.580;2024-01-25T06:05:01;102548.53;;;8.27
81657;BMP280;71067;51.482;-0.580;2024-01-25T06:07:27;102524.47;;;8.26
81657;BMP280;71067;51.482;-0.580;2024-01-25T06:09:53;102520.25;;;8.25
81657;BMP280;71067;51.482;-0.580;2024-01-25T06:12:18;102526.44;;;8.23
81657;BMP280;71067;51.482;-0.580;2024-01-25T06:14:44;102537.81;;;8.33
81657;BMP280;71067;51.482;-0.580;2024-01-25T06:17:09;102535.34;;;8.31
81657;BMP280;71067;51.482;-0.580;2024-01-25T06:19:35;102536.91;;;8.34
81657;BMP280;71067;51.482;-0.580;2024-01-25T06:22:00;102526.66;;;8.32
81657;BMP280;71067;51.482;-0.580;2024-01-25T06:24:26;102532.44;;;8.36
81657;BMP280;71067;51.482;-0.580;2024-01-25T06:26:53;102521.75;;;8.42
81657;BMP280;71067;51.482;-0.580;2024-01-25T06:29:18;102533.72;;;8.43
81657;BMP280;71067;51.482;-0.580;2024-01-25T06:31:43;102521.94;;;8.39
81657;BMP280;71067;51.482;-0.580;2024-01-25T06:34:09;102511.44;;;8.42
81657;BMP280;71067;51.482;-0.580;2024-01-25T06:36:34;102519.31;;;8.53
81657;BMP280;71067;51.482;-0.580;2024-01-25T06:39:00;102526.75;;;8.58
81657;BMP280;71067;51.482;-0.580;2024-01-25T06:41:25;102526.63;;;8.59
81657;BMP280;71067;51.482;-0.580;2024-01-25T06:43:50;102527.28;;;8.63
81657;BMP280;71067;51.482;-0.580;2024-01-25T06:46:16;102522.84;;;8.65
81657;BMP280;71067;51.482;-0.580;2024-01-25T06:48:41;102528.50;;;8.70
81657;BMP280;71067;51.482;-0.580;2024-01-25T06:51:06;102526.66;;;8.72
81657;BMP280;71067;51.482;-0.580;2024-01-25T06:53:31;102523.16;;;8.73
81657;BMP280;71067;51.482;-0.580;2024-01-25T06:55:57;102523.47;;;8.81
81657;BMP280;71067;51.482;-0.580;2024-01-25T06:58:22;102511.22;;;8.84
81657;BMP280;71067;51.482;-0.580;2024-01-25T07:00:48;102508.19;;;8.90
81657;BMP280;71067;51.482;-0.580;2024-01-25T07:03:13;102497.06;;;9.02
81657;BMP280;71067;51.482;-0.580;2024-01-25T07:05:40;102499.19;;;9.08
81657;BMP280;71067;51.482;-0.580;2024-01-25T07:08:06;102501.34;;;9.14
81657;BMP280;71067;51.482;-0.580;2024-01-25T07:10:34;102497.66;;;9.18
81657;BMP280;71067;51.482;-0.580;2024-01-25T07:12:59;102499.09;;;9.22
81657;BMP280;71067;51.482;-0.580;2024-01-25T07:15:25;102501.06;;;9.32
81657;BMP280;71067;51.482;-0.580;2024-01-25T07:17:50;102495.75;;;9.33
81657;BMP280;71067;51.482;-0.580;2024-01-25T07:20:15;102493.69;;;9.38
81657;BMP280;71067;51.482;-0.580;2024-01-25T07:22:41;102495.75;;;9.46
81657;BMP280;71067;51.482;-0.580;2024-01-25T07:25:06;102506.50;;;9.52
81657;BMP280;71067;51.482;-0.580;2024-01-25T07:27:31;102494.41;;;9.53
81657;BMP280;71067;51.482;-0.580;2024-01-25T07:29:57;102500.66;;;9.61
81657;BMP280;71067;51.482;-0.580;2024-01-25T07:32:22;102488.25;;;9.66
81657;BMP280;71067;51.482;-0.580;2024-01-25T07:34:49;102483.66;;;9.70
81657;BMP280;71067;51.482;-0.580;2024-01-25T07:37:14;102474.75;;;9.74
81657;BMP280;71067;51.482;-0.580;2024-01-25T07:39:41;102474.44;;;9.78
81657;BMP280;71067;51.482;-0.580;2024-01-25T07:42:06;102475.78;;;9.84
81657;BMP280;71067;51.482;-0.580;2024-01-25T07:44:31;102452.44;;;9.73
81657;BMP280;71067;51.482;-0.580;2024-01-25T07:46:57;102475.22;;;9.91
81657;BMP280;71067;51.482;-0.580;2024-01-25T07:49:22;102475.78;;;9.95
81657;BMP280;71067;51.482;-0.580;2024-01-25T07:51:47;102466.38;;;9.94
81657;BMP280;71067;51.482;-0.580;2024-01-25T07:54:14;102455.34;;;10.03
81657;BMP280;71067;51.482;-0.580;2024-01-25T07:56:39;102451.00;;;10.03
81657;BMP280;71067;51.482;-0.580;2024-01-25T07:59:04;102450.69;;;10.08
81657;BMP280;71067;51.482;-0.580;2024-01-25T08:01:30;102448.69;;;10.11
81657;BMP280;71067;51.482;-0.580;2024-01-25T08:03:55;102445.28;;;10.11
81657;BMP280;71067;51.482;-0.580;2024-01-25T08:06:21;102443.94;;;10.18
81657;BMP280;71067;51.482;-0.580;2024-01-25T08:08:46;102446.38;;;10.19
81657;BMP280;71067;51.482;-0.580;2024-01-25T08:11:11;102446.16;;;10.23
81657;BMP280;71067;51.482;-0.580;2024-01-25T08:13:37;102443.44;;;10.24
81657;BMP280;71067;51.482;-0.580;2024-01-25T08:16:02;102445.78;;;10.27
81657;BMP280;71067;51.482;-0.580;2024-01-25T08:18:28;102437.81;;;10.30
81657;BMP280;71067;51.482;-0.580;2024-01-25T08:20:55;102440.28;;;10.32
81657;BMP280;71067;51.482;-0.580;2024-01-25T08:23:21;102453.84;;;10.35
81657;BMP280;71067;51.482;-0.580;2024-01-25T08:25:46;102451.00;;;10.38
81657;BMP280;71067;51.482;-0.580;2024-01-25T08:28:11;102444.78;;;10.41
81657;BMP280;71067;51.482;-0.580;2024-01-25T08:30:37;102436.78;;;10.44
81657;BMP280;71067;51.482;-0.580;2024-01-25T08:33:02;102446.09;;;10.46
81657;BMP280;71067;51.482;-0.580;2024-01-25T08:35:29;102441.84;;;10.45
81657;BMP280;71067;51.482;-0.580;2024-01-25T08:37:55;102436.66;;;10.45
81657;BMP280;71067;51.482;-0.580;2024-01-25T08:40:21;102439.75;;;10.50
81657;BMP280;71067;51.482;-0.580;2024-01-25T08:42:46;102433.47;;;10.53
81657;BMP280;71067;51.482;-0.580;2024-01-25T08:45:12;102438.22;;;10.59
81657;BMP280;71067;51.482;-0.580;2024-01-25T08:47:37;102443.50;;;10.57
81657;BMP280;71067;51.482;-0.580;2024-01-25T08:50:03;102452.69;;;10.61
81657;BMP280;71067;51.482;-0.580;2024-01-25T08:52:30;102458.38;;;10.66
81657;BMP280;71067;51.482;-0.580;2024-01-25T08:54:56;102451.97;;;10.70
81657;BMP280;71067;51.482;-0.580;2024-01-25T08:57:21;102456.94;;;10.73
81657;BMP280;71067;51.482;-0.580;2024-01-25T08:59:46;102455.09;;;10.75
81657;BMP280;71067;51.482;-0.580;2024-01-25T09:02:12;102434.22;;;10.77
81657;BMP280;71067;51.482;-0.580;2024-01-25T09:04:37;102438.34;;;10.79
81657;BMP280;71067;51.482;-0.580;2024-01-25T09:07:03;102412.09;;;10.73
81657;BMP280;71067;51.482;-0.580;2024-01-25T09:09:28;102424.91;;;10.85
81657;BMP280;71067;51.482;-0.580;2024-01-25T09:11:53;102417.84;;;10.87
81657;BMP280;71067;51.482;-0.580;2024-01-25T09:14:19;102409.16;;;10.88
81657;BMP280;71067;51.482;-0.580;2024-01-25T09:16:44;102410.41;;;10.94
81657;BMP280;71067;51.482;-0.580;2024-01-25T09:19:10;102402.53;;;10.95
81657;BMP280;71067;51.482;-0.580;2024-01-25T09:21:38;102397.34;;;10.95
81657;BMP280;71067;51.482;-0.580;2024-01-25T09:24:04;102387.22;;;10.92
81657;BMP280;71067;51.482;-0.580;2024-01-25T09:26:29;102398.28;;;11.05
81657;BMP280;71067;51.482;-0.580;2024-01-25T09:28:54;102402.38;;;11.08
81657;BMP280;71067;51.482;-0.580;2024-01-25T09:31:20;102394.47;;;11.09
81657;BMP280;71067;51.482;-0.580;2024-01-25T09:33:45;102385.78;;;11.11
81657;BMP280;71067;51.482;-0.580;2024-01-25T09:36:10;102393.78;;;11.19
81657;BMP280;71067;51.482;-0.580;2024-01-25T09:38:36;102384.78;;;11.23
81657;BMP280;71067;51.482;-0.580;2024-01-25T09:41:02;102382.78;;;11.26
81657;BMP280;71067;51.482;-0.580;2024-01-25T09:43:27;102371.34;;;11.29
81657;BMP280;71067;51.482;-0.580;2024-01-25T09:45:53;102370.25;;;11.31
81657;BMP280;71067;51.482;-0.580;2024-01-25T09:48:22;102363.19;;;11.33
81657;BMP280;71067;51.482;-0.580;2024-01-25T09:50:48;102366.25;;;11.38
81657;BMP280;71067;51.482;-0.580;2024-01-25T09:53:32;102359.75;;;11.44
81657;BMP280;71067;51.482;-0.580;2024-01-25T09:56:17;102353.47;;;11.46
81657;BMP280;71067;51.482;-0.580;2024-01-25T09:58:44;102367.03;;;11.50
81657;BMP280;71067;51.482;-0.580;2024-01-25T10:01:13;102358.16;;;11.52
81657;BMP280;71067;51.482;-0.580;2024-01-25T10:03:43;102355.94;;;11.59
81657;BMP280;71067;51.482;-0.580;2024-01-25T10:06:10;102360.72;;;11.63
81657;BMP280;71067;51.482;-0.580;2024-01-25T10:08:36;102376.03;;;11.66
81657;BMP280;71067;51.482;-0.580;2024-01-25T10:11:02;102367.16;;;11.69
81657;BMP280;71067;51.482;-0.580;2024-01-25T10:13:28;102364.03;;;11.75
81657;BMP280;71067;51.482;-0.580;2024-01-25T10:15:53;102369.97;;;11.77
81657;BMP280;71067;51.482;-0.580;2024-01-25T10:18:20;102357.25;;;11.74
81657;BMP280;71067;51.482;-0.580;2024-01-25T10:20:45;102371.94;;;11.84
81657;BMP280;71067;51.482;-0.580;2024-01-25T10:23:10;102365.78;;;11.85
81657;BMP280;71067;51.482;-0.580;2024-01-25T10:25:36;102382.50;;;11.92
81657;BMP280;71067;51.482;-0.580;2024-01-25T10:28:06;102383.03;;;11.96
81657;BMP280;71067;51.482;-0.580;2024-01-25T10:30:32;102384.31;;;12.02
81657;BMP280;71067;51.482;-0.580;2024-01-25T10:32:58;102387.63;;;12.04
81657;BMP280;71067;51.482;-0.580;2024-01-25T10:35:25;102396.66;;;12.09
81657;BMP280;71067;51.482;-0.580;2024-01-25T10:37:51;102378.91;;;12.14
81657;BMP280;71067;51.482;-0.580;2024-01-25T10:40:18;102374.03;;;12.21
81657;BMP280;71067;51.482;-0.580;2024-01-25T10:42:44;102365.97;;;12.24
81657;BMP280;71067;51.482;-0.580;2024-01-25T10:45:09;102371.72;;;12.27
81657;BMP280;71067;51.482;-0.580;2024-01-25T10:47:35;102372.28;;;12.31
81657;BMP280;71067;51.482;-0.580;2024-01-25T10:50:01;102370.28;;;12.34
81657;BMP280;71067;51.482;-0.580;2024-01-25T10:52:28;102375.66;;;12.42
81657;BMP280;71067;51.482;-0.580;2024-01-25T10:54:54;102365.94;;;12.44
81657;BMP280;71067;51.482;-0.580;2024-01-25T10:57:20;102365.69;;;12.47
81657;BMP280;71067;51.482;-0.580;2024-01-25T10:59:45;102378.13;;;12.53
81657;BMP280;71067;51.482;-0.580;2024-01-25T11:02:11;102367.34;;;12.58
81657;BMP280;71067;51.482;-0.580;2024-01-25T11:04:37;102372.84;;;12.64
81657;BMP280;71067;51.482;-0.580;2024-01-25T11:07:08;102360.38;;;12.58
81657;BMP280;71067;51.482;-0.580;2024-01-25T11:09:35;102365.09;;;12.74
81657;BMP280;71067;51.482;-0.580;2024-01-25T11:12:12;102348.94;;;12.70
81657;BMP280;71067;51.482;-0.580;2024-01-25T11:14:41;102357.72;;;12.88
81657;BMP280;71067;51.482;-0.580;2024-01-25T11:17:18;102345.66;;;12.87
81657;BMP280;71067;51.482;-0.580;2024-01-25T11:19:44;102355.28;;;12.97
81657;BMP280;71067;51.482;-0.580;2024-01-25T11:22:11;102349.53;;;13.03
81657;BMP280;71067;51.482;-0.580;2024-01-25T11:24:38;102330.66;;;13.10
81657;BMP280;71067;51.482;-0.580;2024-01-25T11:27:04;102336.38;;;13.14
81657;BMP280;71067;51.482;-0.580;2024-01-25T11:29:30;102339.38;;;13.19
81657;BMP280;71067;51.482;-0.580;2024-01-25T11:31:55;102330.38;;;13.23
81657;BMP280;71067;51.482;-0.580;2024-01-25T11:34:22;102345.44;;;13.29
81657;BMP280;71067;51.482;-0.580;2024-01-25T11:36:48;102336.38;;;13.33
81657;BMP280;71067;51.482;-0.580;2024-01-25T11:39:15;102336.66;;;13.39
81657;BMP280;71067;51.482;-0.580;2024-01-25T11:41:42;102347.75;;;13.41
81657;BMP280;71067;51.482;-0.580;2024-01-25T11:44:12;102344.56;;;13.47
81657;BMP280;71067;51.482;-0.580;2024-01-25T11:46:37;102329.63;;;13.49
81657;BMP280;71067;51.482;-0.580;2024-01-25T11:49:02;102316.63;;;13.49
81657;BMP280;71067;51.482;-0.580;2024-01-25T11:51:28;102317.06;;;13.54
81657;BMP280;71067;51.482;-0.580;2024-01-25T11:53:53;102317.16;;;13.53
81657;BMP280;71067;51.482;-0.580;2024-01-25T11:56:25;102324.44;;;13.59
81657;BMP280;71067;51.482;-0.580;2024-01-25T11:58:52;102319.59;;;13.64
81657;BMP280;71067;51.482;-0.580;2024-01-25T12:01:18;102309.75;;;13.58
81657;BMP280;71067;51.482;-0.580;2024-01-25T12:03:44;102317.97;;;13.63
81657;BMP280;71067;51.482;-0.580;2024-01-25T12:06:09;102308.38;;;13.63
81657;BMP280;71067;51.482;-0.580;2024-01-25T12:08:35;102303.88;;;13.65
81657;BMP280;71067;51.482;-0.580;2024-01-25T12:11:08;102300.94;;;13.68
81657;BMP280;71067;51.482;-0.580;2024-01-25T12:13:35;102300.69;;;13.71
81657;BMP280;71067;51.482;-0.580;2024-01-25T12:16:02;102289.06;;;13.66
81657;BMP280;71067;51.482;-0.580;2024-01-25T12:18:29;102288.66;;;13.70
81657;BMP280;71067;51.482;-0.580;2024-01-25T12:20:55;102289.44;;;13.71
81657;BMP280;71067;51.482;-0.580;2024-01-25T12:23:20;102296.31;;;13.72
81657;BMP280;71067;51.482;-0.580;2024-01-25T12:25:45;102296.47;;;13.70
81657;BMP280;71067;51.482;-0.580;2024-01-25T12:28:11;102280.31;;;13.67
81657;BMP280;71067;51.482;-0.580;2024-01-25T12:30:36;102271.94;;;13.63
81657;BMP280;71067;51.482;-0.580;2024-01-25T12:33:01;102277.94;;;13.73
81657;BMP280;71067;51.482;-0.580;2024-01-25T12:35:27;102271.09;;;13.72
81657;BMP280;71067;51.482;-0.580;2024-01-25T12:37:52;102269.31;;;13.73
81657;BMP280;71067;51.482;-0.580;2024-01-25T12:40:17;102268.63;;;13.71
81657;BMP280;71067;51.482;-0.580;2024-01-25T12:42:43;102270.28;;;13.72
81657;BMP280;71067;51.482;-0.580;2024-01-25T12:45:08;102261.63;;;13.71
81657;BMP280;71067;51.482;-0.580;2024-01-25T12:47:34;102261.34;;;13.74
81657;BMP280;71067;51.482;-0.580;2024-01-25T12:49:59;102263.81;;;13.76
81657;BMP280;71067;51.482;-0.580;2024-01-25T12:52:24;102255.91;;;13.68
81657;BMP280;71067;51.482;-0.580;2024-01-25T12:54:50;102258.50;;;13.68
81657;BMP280;71067;51.482;-0.580;2024-01-25T12:57:15;102255.91;;;13.68
81657;BMP280;71067;51.482;-0.580;2024-01-25T12:59:40;102272.16;;;13.79
81657;BMP280;71067;51.482;-0.580;2024-01-25T13:02:06;102262.59;;;13.80
81657;BMP280;71067;51.482;-0.580;2024-01-25T13:04:32;102262.59;;;13.80
81657;BMP280;71067;51.482;-0.580;2024-01-25T13:06:57;102263.22;;;13.82
81657;BMP280;71067;51.482;-0.580;2024-01-25T13:09:23;102261.47;;;13.82
81657;BMP280;71067;51.482;-0.580;2024-01-25T13:11:49;102250.66;;;13.77
81657;BMP280;71067;51.482;-0.580;2024-01-25T13:14:14;102250.50;;;13.79
81657;BMP280;71067;51.482;-0.580;2024-01-25T13:16:40;102239.56;;;13.75
81657;BMP280;71067;51.482;-0.580;2024-01-25T13:19:05;102265.00;;;13.91
81657;BMP280;71067;51.482;-0.580;2024-01-25T13:21:32;102263.22;;;13.91
81657;BMP280;71067;51.482;-0.580;2024-01-25T13:24:01;102271.53;;;13.95
81657;BMP280;71067;51.482;-0.580;2024-01-25T13:26:26;102268.81;;;13.97
81657;BMP280;71067;51.482;-0.580;2024-01-25T13:28:52;102264.09;;;14.00
81657;BMP280;71067;51.482;-0.580;2024-01-25T13:31:17;102269.03;;;14.03
81657;BMP280;71067;51.482;-0.580;2024-01-25T13:33:42;102266.28;;;14.05
81657;BMP280;71067;51.482;-0.580;2024-01-25T13:36:08;102258.63;;;14.03
81657;BMP280;71067;51.482;-0.580;2024-01-25T13:38:36;102247.84;;;13.98
81657;BMP280;71067;51.482;-0.580;2024-01-25T13:41:01;102256.41;;;14.08
81657;BMP280;71067;51.482;-0.580;2024-01-25T13:43:27;102233.69;;;14.01